sensor_id;sensor_type;location;lat;lon;timestamp;P1;durP1;ratioP1;P2;durP2;ratioP2
24301;SDS011;12421;49.732;20.078;2023-08-21T00:20:26;11.50;;;9.50;;
24301;SDS011;12421;49.732;20.078;2023-08-21T00:42:15;15.00;;;10.30;;
24301;SDS011;12421;49.732;20.078;2023-08-21T00:52:51;11.80;;;8.60;;
24301;SDS011;12421;49.732;20.078;2023-08-21T01:02:55;12.60;;;9.40;;
24301;SDS011;12421;49.732;20.078;2023-08-21T01:13:34;9.60;;;8.60;;
24301;SDS011;12421;49.732;20.078;2023-08-21T01:24:26;10.10;;;8.90;;
24301;SDS011;12421;49.732;20.078;2023-08-21T01:34:52;9.00;;;7.40;;
24301;SDS011;12421;49.732;20.078;2023-08-21T01:45:00;13.50;;;8.50;;
24301;SDS011;12421;49.732;20.078;2023-08-21T01:55:11;10.50;;;8.10;;
24301;SDS011;12421;49.732;20.078;2023-08-21T02:38:55;20.90;;;10.40;;
24301;SDS011;12421;49.732;20.078;2023-08-21T02:49:08;22.40;;;11.30;;
24301;SDS011;12421;49.732;20.078;2023-08-21T02:59:13;21.00;;;10.60;;
24301;SDS011;12421;49.732;20.078;2023-08-21T03:20:27;15.90;;;11.50;;
24301;SDS011;12421;49.732;20.078;2023-08-21T03:41:10;24.30;;;12.50;;
24301;SDS011;12421;49.732;20.078;2023-08-21T03:51:56;29.90;;;11.90;;
24301;SDS011;12421;49.732;20.078;2023-08-21T04:02:06;16.00;;;11.20;;
24301;SDS011;12421;49.732;20.078;2023-08-21T04:12:51;21.00;;;12.60;;
24301;SDS011;12421;49.732;20.078;2023-08-21T04:23:35;22.40;;;10.60;;
24301;SDS011;12421;49.732;20.078;2023-08-21T04:44:34;18.40;;;10.90;;
24301;SDS011;12421;49.732;20.078;2023-08-21T04:54:57;21.80;;;10.40;;
24301;SDS011;12421;49.732;20.078;2023-08-21T05:05:55;13.80;;;10.90;;
24301;SDS011;12421;49.732;20.078;2023-08-21T05:16:03;13.30;;;9.60;;
24301;SDS011;12421;49.732;20.078;2023-08-21T05:26:11;10.60;;;8.60;;
24301;SDS011;12421;49.732;20.078;2023-08-21T05:36:17;12.00;;;10.30;;
24301;SDS011;12421;49.732;20.078;2023-08-21T05:46:55;9.40;;;8.50;;
24301;SDS011;12421;49.732;20.078;2023-08-21T05:57:09;14.20;;;8.90;;
24301;SDS011;12421;49.732;20.078;2023-08-21T06:07:16;10.40;;;9.40;;
24301;SDS011;12421;49.732;20.078;2023-08-21T06:17:34;11.50;;;10.40;;
24301;SDS011;12421;49.732;20.078;2023-08-21T06:27:38;10.90;;;9.80;;
24301;SDS011;12421;49.732;20.078;2023-08-21T06:37:58;13.10;;;11.30;;
24301;SDS011;12421;49.732;20.078;2023-08-21T06:48:02;10.30;;;9.30;;
24301;SDS011;12421;49.732;20.078;2023-08-21T06:58:06;10.00;;;9.00;;
24301;SDS011;12421;49.732;20.078;2023-08-21T07:08:10;10.40;;;9.40;;
24301;SDS011;12421;49.732;20.078;2023-08-21T07:18:14;9.20;;;8.30;;
24301;SDS011;12421;49.732;20.078;2023-08-21T07:28:17;10.00;;;8.20;;
24301;SDS011;12421;49.732;20.078;2023-08-21T07:48:26;10.10;;;8.20;;
24301;SDS011;12421;49.732;20.078;2023-08-21T07:58:30;8.70;;;7.80;;
24301;SDS011;12421;49.732;20.078;2023-08-21T08:08:34;13.50;;;6.50;;
24301;SDS011;12421;49.732;20.078;2023-08-21T08:18:38;10.20;;;7.10;;
24301;SDS011;12421;49.732;20.078;2023-08-21T08:28:42;11.00;;;7.20;;
24301;SDS011;12421;49.732;20.078;2023-08-21T08:38:46;10.70;;;7.70;;
24301;SDS011;12421;49.732;20.078;2023-08-21T08:48:49;9.00;;;7.00;;
24301;SDS011;12421;49.732;20.078;2023-08-21T08:58:58;8.20;;;7.40;;
24301;SDS011;12421;49.732;20.078;2023-08-21T09:09:01;7.50;;;6.80;;
24301;SDS011;12421;49.732;20.078;2023-08-21T09:19:05;7.80;;;6.80;;
24301;SDS011;12421;49.732;20.078;2023-08-21T09:29:12;11.10;;;7.50;;
24301;SDS011;12421;49.732;20.078;2023-08-21T09:39:20;9.40;;;8.50;;
24301;SDS011;12421;49.732;20.078;2023-08-21T09:49:28;9.30;;;8.00;;
24301;SDS011;12421;49.732;20.078;2023-08-21T09:59:33;11.70;;;8.30;;
24301;SDS011;12421;49.732;20.078;2023-08-21T10:09:39;8.80;;;7.90;;
24301;SDS011;12421;49.732;20.078;2023-08-21T10:19:50;13.70;;;8.60;;
24301;SDS011;12421;49.732;20.078;2023-08-21T10:29:57;11.40;;;9.20;;
24301;SDS011;12421;49.732;20.078;2023-08-21T10:40:01;13.80;;;10.70;;
24301;SDS011;12421;49.732;20.078;2023-08-21T10:50:07;12.50;;;9.80;;
24301;SDS011;12421;49.732;20.078;2023-08-21T11:10:22;13.30;;;10.30;;
24301;SDS011;12421;49.732;20.078;2023-08-21T11:20:33;17.00;;;10.30;;
24301;SDS011;12421;49.732;20.078;2023-08-21T11:30:39;15.20;;;10.30;;
24301;SDS011;12421;49.732;20.078;2023-08-21T11:40:42;15.10;;;10.80;;
24301;SDS011;12421;49.732;20.078;2023-08-21T11:50:56;12.90;;;10.10;;
24301;SDS011;12421;49.732;20.078;2023-08-21T12:01:03;12.20;;;9.80;;
24301;SDS011;12421;49.732;20.078;2023-08-21T12:11:08;10.00;;;8.80;;
24301;SDS011;12421;49.732;20.078;2023-08-21T12:21:13;11.10;;;9.50;;
24301;SDS011;12421;49.732;20.078;2023-08-21T12:31:26;12.60;;;9.70;;
24301;SDS011;12421;49.732;20.078;2023-08-21T12:41:34;11.50;;;9.80;;
24301;SDS011;12421;49.732;20.078;2023-08-21T13:02:13;10.30;;;8.60;;
24301;SDS011;12421;49.732;20.078;2023-08-21T13:12:16;13.70;;;8.10;;
24301;SDS011;12421;49.732;20.078;2023-08-21T13:22:22;9.30;;;8.00;;
24301;SDS011;12421;49.732;20.078;2023-08-21T13:32:28;8.60;;;7.50;;
24301;SDS011;12421;49.732;20.078;2023-08-21T13:42:32;8.70;;;7.50;;
24301;SDS011;12421;49.732;20.078;2023-08-21T13:52:40;10.30;;;7.90;;
24301;SDS011;12421;49.732;20.078;2023-08-21T14:02:45;10.40;;;8.10;;
24301;SDS011;12421;49.732;20.078;2023-08-21T14:12:51;12.00;;;8.70;;
24301;SDS011;12421;49.732;20.078;2023-08-21T14:22:55;11.20;;;9.00;;
24301;SDS011;12421;49.732;20.078;2023-08-21T14:32:59;11.50;;;8.60;;
24301;SDS011;12421;49.732;20.078;2023-08-21T14:43:03;19.60;;;11.60;;
24301;SDS011;12421;49.732;20.078;2023-08-21T14:53:06;15.10;;;11.40;;
24301;SDS011;12421;49.732;20.078;2023-08-21T15:03:11;20.50;;;11.50;;
24301;SDS011;12421;49.732;20.078;2023-08-21T15:13:22;17.70;;;11.90;;
24301;SDS011;12421;49.732;20.078;2023-08-21T15:23:36;12.70;;;11.20;;
24301;SDS011;12421;49.732;20.078;2023-08-21T15:33:48;16.50;;;11.70;;
24301;SDS011;12421;49.732;20.078;2023-08-21T15:55:23;14.50;;;11.30;;
24301;SDS011;12421;49.732;20.078;2023-08-21T16:05:49;14.40;;;11.10;;
24301;SDS011;12421;49.732;20.078;2023-08-21T16:15:52;15.80;;;11.20;;
24301;SDS011;12421;49.732;20.078;2023-08-21T16:25:58;13.00;;;10.90;;
24301;SDS011;12421;49.732;20.078;2023-08-21T16:36:05;11.80;;;10.00;;
24301;SDS011;12421;49.732;20.078;2023-08-21T16:46:11;14.70;;;11.60;;
24301;SDS011;12421;49.732;20.078;2023-08-21T16:56:30;14.20;;;11.10;;
24301;SDS011;12421;49.732;20.078;2023-08-21T17:17:45;14.70;;;12.20;;
24301;SDS011;12421;49.732;20.078;2023-08-21T17:28:10;18.40;;;14.90;;
24301;SDS011;12421;49.732;20.078;2023-08-21T17:38:37;20.50;;;16.00;;
24301;SDS011;12421;49.732;20.078;2023-08-21T17:49:00;17.00;;;14.20;;
24301;SDS011;12421;49.732;20.078;2023-08-21T17:59:04;18.70;;;16.00;;
24301;SDS011;12421;49.732;20.078;2023-08-21T18:09:15;24.40;;;17.30;;
24301;SDS011;12421;49.732;20.078;2023-08-21T18:19:24;23.00;;;18.20;;
24301;SDS011;12421;49.732;20.078;2023-08-21T18:29:46;23.80;;;18.40;;
24301;SDS011;12421;49.732;20.078;2023-08-21T18:39:50;27.50;;;20.30;;
24301;SDS011;12421;49.732;20.078;2023-08-21T18:49:53;14.30;;;12.10;;
24301;SDS011;12421;49.732;20.078;2023-08-21T19:00:08;14.80;;;12.90;;
24301;SDS011;12421;49.732;20.078;2023-08-21T19:10:18;22.40;;;16.80;;
24301;SDS011;12421;49.732;20.078;2023-08-21T19:20:29;17.90;;;14.10;;
24301;SDS011;12421;49.732;20.078;2023-08-21T19:30:50;17.90;;;15.50;;
24301;SDS011;12421;49.732;20.078;2023-08-21T19:51:56;17.40;;;13.70;;
24301;SDS011;12421;49.732;20.078;2023-08-21T20:02:15;16.20;;;14.60;;
24301;SDS011;12421;49.732;20.078;2023-08-21T20:23:12;19.00;;;15.40;;
24301;SDS011;12421;49.732;20.078;2023-08-21T20:33:18;24.30;;;17.70;;
24301;SDS011;12421;49.732;20.078;2023-08-21T20:43:30;22.20;;;15.10;;
24301;SDS011;12421;49.732;20.078;2023-08-21T20:54:19;22.90;;;17.00;;
24301;SDS011;12421;49.732;20.078;2023-08-21T21:05:04;16.20;;;13.30;;
24301;SDS011;12421;49.732;20.078;2023-08-21T21:15:20;21.60;;;14.90;;
24301;SDS011;12421;49.732;20.078;2023-08-21T21:25:29;20.80;;;16.00;;
24301;SDS011;12421;49.732;20.078;2023-08-21T21:46:30;18.60;;;15.60;;
24301;SDS011;12421;49.732;20.078;2023-08-21T21:56:45;18.30;;;14.20;;
24301;SDS011;12421;49.732;20.078;2023-08-21T22:07:03;18.20;;;14.90;;
24301;SDS011;12421;49.732;20.078;2023-08-21T22:17:44;16.60;;;14.50;;
24301;SDS011;12421;49.732;20.078;2023-08-21T22:27:48;16.50;;;14.20;;
24301;SDS011;12421;49.732;20.078;2023-08-21T22:38:09;17.50;;;13.80;;
24301;SDS011;12421;49.732;20.078;2023-08-21T22:48:24;20.50;;;15.20;;
24301;SDS011;12421;49.732;20.078;2023-08-21T22:58:36;19.30;;;13.90;;
24301;SDS011;12421;49.732;20.078;2023-08-21T23:09:20;18.60;;;13.70;;
24301;SDS011;12421;49.732;20.078;2023-08-21T23:19:34;18.10;;;13.20;;
24301;SDS011;12421;49.732;20.078;2023-08-21T23:40:27;15.60;;;13.20;;
24301;SDS011;12421;49.732;20.078;2023-08-21T23:50:57;19.30;;;16.20;;
